Time;durP1;ratioP1;P1;durP2;ratioP2;P2;SDS_P1;SDS_P2;PMS_P1;PMS_P2;Temp;Humidity;BMP_temperature;BMP_pressure;BME280_temperature;BME280_humidity;BME280_pressure;Samples;Min_cycle;Max_cycle;Signal;HPM_P1;HPM_P2
2022/12/30 00:01:56;;;;;;;14.50;2.45;;;;;;;;;;5043819;28;20037;-80
2022/12/30 00:04:23;;;;;;;15.00;2.80;;;;;;;;;;5045329;28;20584;-80
2022/12/30 00:06:50;;;;;;;17.02;2.83;;;;;;;;;;5044177;28;20061;-79
2022/12/30 00:09:18;;;;;;;20.85;3.00;;;;;;;;;;5042107;28;20065;-79
2022/12/30 00:11:45;;;;;;;18.85;3.45;;;;;;;;;;5053714;28;20046;-79
2022/12/30 00:34:14;;;;;;;20.30;2.72;;;;;;;;;;5043709;28;20042;-79
2022/12/30 00:36:42;;;;;;;14.75;2.28;;;;;;;;;;5050959;28;20634;-79
2022/12/30 00:39:09;;;;;;;12.30;2.10;;;;;;;;;;5048477;28;20050;-80
2022/12/30 00:44:24;;;;;;;15.57;2.97;;;;;;;;;;5057596;28;20067;-80
2022/12/30 00:46:51;;;;;;;15.27;2.40;;;;;;;;;;5051196;28;20045;-79
2022/12/30 00:57:38;;;;;;;14.82;2.50;;;;;;;;;;5053372;28;20081;-79
2022/12/30 01:00:06;;;;;;;15.10;2.60;;;;;;;;;;5049265;28;20037;-79
2022/12/30 01:02:33;;;;;;;11.77;2.28;;;;;;;;;;5063826;28;20531;-79
2022/12/30 01:05:00;;;;;;;18.67;2.55;;;;;;;;;;5046056;28;20827;-79
2022/12/30 01:07:28;;;;;;;16.52;2.03;;;;;;;;;;5059880;28;20476;-79
2022/12/30 01:09:56;;;;;;;8.32;1.83;;;;;;;;;;5046430;28;20038;-79
2022/12/30 01:12:23;;;;;;;16.58;2.08;;;;;;;;;;5041142;28;20141;-79
2022/12/30 01:14:54;;;;;;;17.20;2.00;;;;;;;;;;5042896;28;20049;-79
2022/12/30 01:17:27;;;;;;;10.87;2.53;;;;;;;;;;5046521;28;20057;-79
2022/12/30 01:19:59;;;;;;;12.85;2.33;;;;;;;;;;5042245;28;20888;-79
2022/12/30 01:22:26;;;;;;;14.80;2.60;;;;;;;;;;5042204;28;20134;-79
2022/12/30 01:24:53;;;;;;;13.65;1.95;;;;;;;;;;5049408;28;20108;-79
2022/12/30 01:27:20;;;;;;;14.20;1.83;;;;;;;;;;5050636;28;20056;-79
2022/12/30 01:29:48;;;;;;;12.85;2.00;;;;;;;;;;5043987;28;20045;-79
2022/12/30 01:32:19;;;;;;;15.07;2.15;;;;;;;;;;5050882;28;20092;-79
2022/12/30 01:34:52;;;;;;;11.30;2.00;;;;;;;;;;5054021;28;20053;-80
2022/12/30 01:37:20;;;;;;;15.18;2.00;;;;;;;;;;5051820;28;20114;-79
2022/12/30 01:39:47;;;;;;;12.95;2.22;;;;;;;;;;5055070;28;20129;-79
2022/12/30 01:42:18;;;;;;;16.08;2.10;;;;;;;;;;5043832;28;20046;-79
2022/12/30 01:44:49;;;;;;;13.23;1.98;;;;;;;;;;5045289;28;20046;-79
2022/12/30 01:47:35;;;;;;;6.35;1.58;;;;;;;;;;5043318;28;20105;-79
2022/12/30 01:50:09;;;;;;;11.02;2.63;;;;;;;;;;5045553;28;20042;-80
2022/12/30 01:52:41;;;;;;;14.93;2.17;;;;;;;;;;5043456;28;20054;-79
2022/12/30 01:55:12;;;;;;;12.02;2.03;;;;;;;;;;5046011;28;20223;-79
2022/12/30 01:57:41;;;;;;;13.98;1.80;;;;;;;;;;5049810;28;20660;-79
2022/12/30 02:00:09;;;;;;;8.93;1.90;;;;;;;;;;5047484;28;20068;-79
2022/12/30 02:02:40;;;;;;;16.92;2.25;;;;;;;;;;5076243;28;20042;-79
2022/12/30 02:05:08;;;;;;;13.93;2.53;;;;;;;;;;5043986;28;20054;-79
2022/12/30 02:07:38;;;;;;;16.80;2.15;;;;;;;;;;5039029;28;20049;-79
2022/12/30 02:10:07;;;;;;;15.38;2.40;;;;;;;;;;5050604;28;20049;-79
2022/12/30 02:12:34;;;;;;;15.85;2.35;;;;;;;;;;5046923;28;20054;-79
2022/12/30 02:15:02;;;;;;;19.17;2.75;;;;;;;;;;5042453;28;20045;-80
2022/12/30 02:17:32;;;;;;;8.98;2.30;;;;;;;;;;5047642;28;20045;-80
2022/12/30 02:20:08;;;;;;;21.02;2.53;;;;;;;;;;5051159;28;20056;-79
2022/12/30 02:22:48;;;;;;;17.52;2.38;;;;;;;;;;5058921;28;20053;-80
2022/12/30 02:25:41;;;;;;;10.48;2.25;;;;;;;;;;5086807;28;20573;-80
2022/12/30 02:28:08;;;;;;;18.23;2.72;;;;;;;;;;5050106;28;20080;-79
2022/12/30 02:30:54;;;;;;;12.70;2.75;;;;;;;;;;5051996;28;20030;-80
2022/12/30 02:33:32;;;;;;;19.42;2.70;;;;;;;;;;5050111;28;20833;-79
2022/12/30 02:36:22;;;;;;;18.15;3.58;;;;;;;;;;5046168;28;20839;-79
2022/12/30 02:39:03;;;;;;;14.80;2.60;;;;;;;;;;5049827;28;20085;-79
2022/12/30 02:44:40;;;;;;;14.95;2.78;;;;;;;;;;5044691;28;20085;-79
2022/12/30 02:47:20;;;;;;;10.32;2.05;;;;;;;;;;5048828;28;20069;-79
2022/12/30 02:52:14;;;;;;;16.02;2.55;;;;;;;;;;5046777;28;20124;-79
2022/12/30 02:52:40;;;;;;;17.70;2.53;;;;;;;;;;5051552;28;20072;-79
2022/12/30 02:55:08;;;;;;;9.82;2.30;;;;;;;;;;5056193;28;20052;-79
2022/12/30 02:57:35;;;;;;;17.98;3.05;;;;;;;;;;5049586;28;20857;-80
2022/12/30 03:06:31;;;;;;;25.17;3.90;;;;;;;;;;4998229;28;20781;-80
2022/12/30 03:09:10;;;;;;;22.85;3.00;;;;;;;;;;4994565;28;20054;-80
2022/12/30 03:11:56;;;;;;;17.17;2.75;;;;;;;;;;4994879;28;20207;-80
2022/12/30 03:14:28;;;;;;;12.00;2.40;;;;;;;;;;4979620;28;20067;-80
2022/12/30 03:17:01;;;;;;;20.25;3.13;;;;;;;;;;5008140;28;20074;-80
2022/12/30 03:19:31;;;;;;;15.43;2.80;;;;;;;;;;5030386;28;20050;-80
2022/12/30 03:21:59;;;;;;;13.00;2.50;;;;;;;;;;5011308;28;20105;-80
2022/12/30 03:27:17;;;;;;;27.60;2.97;;;;;;;;;;5014260;28;20058;-80
2022/12/30 03:29:47;;;;;;;17.73;2.67;;;;;;;;;;5012612;28;20058;-80
2022/12/30 03:32:15;;;;;;;8.52;2.10;;;;;;;;;;5016545;28;20058;-80
2022/12/30 03:34:43;;;;;;;16.75;3.00;;;;;;;;;;5023487;28;20039;-79
2022/12/30 03:37:22;;;;;;;10.27;2.33;;;;;;;;;;5009745;28;20129;-80
2022/12/30 03:39:56;;;;;;;10.00;2.67;;;;;;;;;;5023229;28;20050;-80
2022/12/30 03:42:23;;;;;;;13.90;2.45;;;;;;;;;;5052270;28;20057;-80
2022/12/30 03:44:51;;;;;;;17.33;3.05;;;;;;;;;;5047099;28;20879;-80
2022/12/30 03:47:19;;;;;;;30.38;3.80;;;;;;;;;;5051879;28;20052;-80
2022/12/30 03:49:46;;;;;;;15.57;2.65;;;;;;;;;;5051742;28;20050;-80
2022/12/30 03:52:14;;;;;;;18.25;2.70;;;;;;;;;;5049690;28;20077;-79
2022/12/30 03:54:42;;;;;;;16.30;2.97;;;;;;;;;;5046650;28;20053;-79
2022/12/30 03:57:09;;;;;;;12.93;2.55;;;;;;;;;;5059537;28;20088;-80
2022/12/30 03:59:36;;;;;;;17.10;3.13;;;;;;;;;;5060405;28;20113;-80
2022/12/30 04:02:04;;;;;;;11.65;2.28;;;;;;;;;;5052814;28;20053;-79
2022/12/30 04:04:33;;;;;;;19.63;2.30;;;;;;;;;;5048822;28;20045;-81
2022/12/30 04:07:01;;;;;;;17.63;2.55;;;;;;;;;;5053904;28;20054;-80
2022/12/30 04:09:28;;;;;;;15.52;2.92;;;;;;;;;;5057424;28;20046;-80
2022/12/30 04:11:58;;;;;;;14.82;2.75;;;;;;;;;;5051769;28;20068;-79
2022/12/30 04:14:25;;;;;;;14.13;2.28;;;;;;;;;;5048109;28;20052;-79
2022/12/30 04:16:53;;;;;;;19.50;2.33;;;;;;;;;;5054187;28;20034;-80
2022/12/30 04:19:20;;;;;;;31.20;2.75;;;;;;;;;;5051394;28;20060;-80
2022/12/30 04:21:47;;;;;;;15.15;3.15;;;;;;;;;;5046939;28;20049;-80
2022/12/30 04:24:14;;;;;;;12.45;2.30;;;;;;;;;;5048039;28;20045;-80
2022/12/30 04:26:42;;;;;;;12.70;1.95;;;;;;;;;;5052066;28;20040;-79
2022/12/30 04:29:09;;;;;;;10.73;2.60;;;;;;;;;;5049848;28;20050;-80
2022/12/30 04:31:36;;;;;;;19.77;2.58;;;;;;;;;;5058752;28;20117;-79
2022/12/30 04:34:03;;;;;;;17.05;2.40;;;;;;;;;;5044807;28;20109;-79
2022/12/30 04:36:34;;;;;;;19.58;3.05;;;;;;;;;;5049318;28;20046;-80
2022/12/30 04:39:01;;;;;;;13.20;2.38;;;;;;;;;;5052561;28;20050;-80
2022/12/30 04:41:28;;;;;;;12.77;2.53;;;;;;;;;;5050234;28;20081;-80
2022/12/30 04:43:55;;;;;;;18.15;2.42;;;;;;;;;;5047869;28;20049;-80
2022/12/30 04:46:22;;;;;;;19.38;2.42;;;;;;;;;;5053136;28;20045;-79
2022/12/30 04:48:50;;;;;;;11.73;2.35;;;;;;;;;;5052457;28;20042;-80
2022/12/30 04:51:22;;;;;;;8.63;1.75;;;;;;;;;;5049003;28;20104;-79
2022/12/30 04:53:49;;;;;;;15.65;2.17;;;;;;;;;;5044972;28;20042;-80
2022/12/30 04:56:17;;;;;;;17.35;3.97;;;;;;;;;;5061230;28;20046;-80
2022/12/30 04:58:55;;;;;;;19.67;2.38;;;;;;;;;;5051370;28;20072;-80
2022/12/30 05:01:24;;;;;;;10.93;2.00;;;;;;;;;;5044825;28;20076;-80
2022/12/30 05:03:51;;;;;;;11.40;2.10;;;;;;;;;;5041730;28;20065;-80
2022/12/30 05:06:18;;;;;;;14.15;2.35;;;;;;;;;;5052013;28;20153;-79
2022/12/30 05:08:45;;;;;;;16.48;2.67;;;;;;;;;;5046547;28;20073;-80
2022/12/30 05:11:12;;;;;;;13.95;2.33;;;;;;;;;;5048077;28;20088;-80
2022/12/30 05:13:39;;;;;;;15.50;2.50;;;;;;;;;;5077163;28;20062;-80
2022/12/30 05:16:13;;;;;;;15.20;2.97;;;;;;;;;;5048468;28;20054;-80
2022/12/30 05:18:40;;;;;;;9.98;2.17;;;;;;;;;;5047271;28;20140;-80
2022/12/30 05:21:07;;;;;;;18.02;3.05;;;;;;;;;;5051057;28;22864;-80
2022/12/30 05:26:20;;;;;;;15.70;2.20;;;;;;;;;;5046618;28;20096;-80
2022/12/30 05:28:49;;;;;;;14.93;2.55;;;;;;;;;;5047423;28;20050;-80
2022/12/30 05:31:17;;;;;;;15.75;2.50;;;;;;;;;;5051657;28;20057;-80
2022/12/30 05:33:44;;;;;;;15.32;2.80;;;;;;;;;;5057078;28;21051;-80
2022/12/30 05:36:12;;;;;;;21.52;2.80;;;;;;;;;;5052257;28;20693;-79
2022/12/30 05:38:39;;;;;;;8.77;2.28;;;;;;;;;;5077352;28;20034;-80
2022/12/30 05:41:10;;;;;;;13.13;2.08;;;;;;;;;;5055813;28;20915;-81
2022/12/30 05:43:46;;;;;;;22.10;2.95;;;;;;;;;;5046281;28;20042;-79
2022/12/30 05:46:13;;;;;;;24.48;3.60;;;;;;;;;;5054332;28;20050;-80
2022/12/30 05:48:40;;;;;;;20.52;2.78;;;;;;;;;;5044388;28;20069;-80
2022/12/30 05:51:07;;;;;;;14.50;2.05;;;;;;;;;;5056353;28;20053;-80
2022/12/30 05:53:35;;;;;;;17.92;2.35;;;;;;;;;;5048629;28;20030;-80
2022/12/30 05:56:08;;;;;;;15.57;2.50;;;;;;;;;;5056884;28;20052;-80
2022/12/30 05:58:38;;;;;;;15.55;2.80;;;;;;;;;;5055477;28;20060;-80
2022/12/30 06:01:08;;;;;;;19.13;2.28;;;;;;;;;;5059303;28;20045;-80
2022/12/30 06:03:38;;;;;;;23.00;3.08;;;;;;;;;;5064211;28;20106;-80
2022/12/30 06:06:07;;;;;;;14.25;2.60;;;;;;;;;;5043418;28;20061;-80
2022/12/30 06:08:38;;;;;;;14.13;2.15;;;;;;;;;;5079176;28;20046;-80
2022/12/30 06:11:06;;;;;;;13.73;2.35;;;;;;;;;;5056046;28;20045;-79
2022/12/30 06:13:34;;;;;;;14.18;2.58;;;;;;;;;;5054147;28;20057;-80
2022/12/30 06:16:01;;;;;;;14.25;2.33;;;;;;;;;;5048651;28;20563;-80
2022/12/30 06:18:28;;;;;;;11.48;2.45;;;;;;;;;;5050318;28;20141;-80
2022/12/30 06:20:58;;;;;;;11.27;2.13;;;;;;;;;;5045468;28;20049;-80
2022/12/30 06:23:27;;;;;;;20.98;2.40;;;;;;;;;;5054064;28;20033;-80
2022/12/30 06:25:55;;;;;;;16.55;2.78;;;;;;;;;;5044418;28;20630;-80
2022/12/30 06:28:23;;;;;;;15.63;2.80;;;;;;;;;;5042550;28;20076;-80
2022/12/30 06:30:51;;;;;;;23.98;2.53;;;;;;;;;;5049905;28;20049;-80
2022/12/30 06:33:18;;;;;;;12.85;2.28;;;;;;;;;;5047446;28;20904;-80
2022/12/30 06:35:46;;;;;;;12.38;2.40;;;;;;;;;;5042410;28;20030;-80
2022/12/30 06:38:16;;;;;;;18.73;2.53;;;;;;;;;;5047737;28;20060;-80
2022/12/30 06:40:44;;;;;;;18.15;2.95;;;;;;;;;;5044561;28;20806;-82
2022/12/30 06:43:11;;;;;;;12.70;2.58;;;;;;;;;;5043423;28;20053;-80
2022/12/30 06:45:39;;;;;;;12.27;2.58;;;;;;;;;;5057291;28;20057;-80
2022/12/30 06:48:09;;;;;;;22.58;2.78;;;;;;;;;;5058608;28;20093;-79
2022/12/30 06:50:36;;;;;;;14.38;2.47;;;;;;;;;;5053220;28;20068;-80
2022/12/30 06:53:04;;;;;;;21.85;3.15;;;;;;;;;;5045785;28;20042;-80
2022/12/30 06:55:34;;;;;;;16.77;2.72;;;;;;;;;;5049830;28;20034;-80
2022/12/30 06:58:26;;;;;;;24.10;3.17;;;;;;;;;;5059187;28;20102;-80
2022/12/30 07:01:03;;;;;;;23.50;3.60;;;;;;;;;;5056720;28;20096;-80
2022/12/30 07:03:30;;;;;;;21.38;2.72;;;;;;;;;;5058239;28;20037;-80
2022/12/30 07:05:57;;;;;;;18.80;3.17;;;;;;;;;;5052629;28;20879;-80
2022/12/30 07:08:25;;;;;;;20.77;3.65;;;;;;;;;;5049227;28;20982;-80
2022/12/30 07:11:08;;;;;;;16.38;3.85;;;;;;;;;;5049169;28;20050;-80
2022/12/30 07:13:45;;;;;;;12.30;3.20;;;;;;;;;;5068754;28;20058;-80
2022/12/30 07:16:17;;;;;;;15.82;2.90;;;;;;;;;;5076784;28;20034;-80
2022/12/30 07:18:56;;;;;;;25.25;4.28;;;;;;;;;;5084073;28;20042;-80
2022/12/30 07:21:26;;;;;;;15.18;2.97;;;;;;;;;;5042726;28;20050;-79
2022/12/30 07:23:54;;;;;;;15.18;3.13;;;;;;;;;;5051350;28;20045;-80
2022/12/30 07:26:29;;;;;;;18.73;3.37;;;;;;;;;;5056965;28;20061;-80
2022/12/30 07:28:57;;;;;;;23.58;3.22;;;;;;;;;;5052771;28;20048;-80
2022/12/30 07:31:24;;;;;;;16.27;3.20;;;;;;;;;;5042641;28;20816;-80
2022/12/30 07:33:54;;;;;;;16.02;3.08;;;;;;;;;;5058686;28;20065;-80
2022/12/30 07:36:26;;;;;;;14.70;2.95;;;;;;;;;;5069587;28;20104;-80
2022/12/30 07:38:57;;;;;;;15.27;3.20;;;;;;;;;;5064898;28;20064;-80
2022/12/30 07:41:25;;;;;;;14.60;2.85;;;;;;;;;;5047386;28;21073;-80
2022/12/30 07:43:59;;;;;;;12.30;2.80;;;;;;;;;;5078097;28;20045;-80
2022/12/30 07:46:29;;;;;;;17.38;2.75;;;;;;;;;;5049755;28;20088;-80
2022/12/30 07:49:05;;;;;;;13.30;2.90;;;;;;;;;;5052188;28;20111;-80
2022/12/30 07:51:33;;;;;;;22.63;3.40;;;;;;;;;;5058544;28;20053;-80
2022/12/30 07:54:14;;;;;;;18.17;3.40;;;;;;;;;;5064420;28;20037;-80
2022/12/30 07:57:21;;;;;;;9.23;2.20;;;;;;;;;;5042690;28;20049;-80
2022/12/30 08:00:10;;;;;;;13.60;3.00;;;;;;;;;;5039508;28;20061;-81
2022/12/30 08:02:38;;;;;;;13.27;2.67;;;;;;;;;;5044202;28;20136;-80
2022/12/30 08:05:12;;;;;;;12.15;2.72;;;;;;;;;;5053127;28;20053;-80
2022/12/30 08:11:10;;;;;;;16.42;2.90;;;;;;;;;;5049407;28;20155;-81
2022/12/30 08:13:39;;;;;;;11.27;2.92;;;;;;;;;;5056053;28;20049;-80
2022/12/30 08:16:10;;;;;;;11.90;2.53;;;;;;;;;;5042266;28;20045;-80
2022/12/30 08:18:40;;;;;;;13.88;2.55;;;;;;;;;;5056878;28;20060;-80
2022/12/30 08:21:09;;;;;;;15.77;2.88;;;;;;;;;;5053025;28;20053;-80
2022/12/30 08:23:37;;;;;;;10.98;2.97;;;;;;;;;;5043306;28;20114;-80
2022/12/30 08:26:05;;;;;;;18.05;3.35;;;;;;;;;;5051413;28;20902;-79
2022/12/30 08:28:33;;;;;;;13.00;2.97;;;;;;;;;;5048928;28;20060;-81
2022/12/30 08:31:08;;;;;;;9.90;2.75;;;;;;;;;;5051172;28;20045;-80
2022/12/30 08:33:39;;;;;;;17.67;2.95;;;;;;;;;;5043142;28;20723;-79
2022/12/30 08:36:09;;;;;;;8.70;2.20;;;;;;;;;;5043746;28;20928;-80
2022/12/30 08:38:38;;;;;;;14.80;2.30;;;;;;;;;;5052845;28;20053;-80
2022/12/30 08:41:08;;;;;;;11.93;2.22;;;;;;;;;;5045785;28;20060;-80
2022/12/30 08:43:38;;;;;;;;;;;;;;;;;;5051881;28;20395;-80
2022/12/30 08:46:09;;;;;;;13.73;2.45;;;;;;;;;;5085402;28;40877;-80
2022/12/30 08:48:38;;;;;;;10.98;2.60;;;;;;;;;;5051653;28;20045;-80
2022/12/30 08:51:15;;;;;;;14.63;2.50;;;;;;;;;;5063768;28;20045;-80
2022/12/30 08:53:43;;;;;;;12.75;2.78;;;;;;;;;;5080324;28;20104;-81
2022/12/30 08:56:13;;;;;;;10.25;2.17;;;;;;;;;;5052862;28;20042;-80
2022/12/30 08:58:40;;;;;;;14.52;3.08;;;;;;;;;;5051227;28;20069;-80
2022/12/30 09:01:10;;;;;;;15.65;2.50;;;;;;;;;;5083857;28;20069;-80
2022/12/30 09:03:56;;;;;;;10.57;2.45;;;;;;;;;;5056726;28;20038;-79
2022/12/30 09:06:24;;;;;;;11.20;2.28;;;;;;;;;;5042659;28;20057;-80
2022/12/30 09:08:55;;;;;;;13.43;2.75;;;;;;;;;;5058390;28;20092;-80
2022/12/30 09:11:24;;;;;;;8.68;2.45;;;;;;;;;;5050189;28;20057;-80
2022/12/30 09:13:52;;;;;;;11.95;3.13;;;;;;;;;;5053935;28;21016;-80
2022/12/30 09:16:26;;;;;;;10.75;2.60;;;;;;;;;;5056430;28;20041;-80
2022/12/30 09:18:57;;;;;;;14.02;2.30;;;;;;;;;;5056377;28;21327;-80
2022/12/30 09:21:27;;;;;;;9.32;2.67;;;;;;;;;;5061236;28;20061;-80
2022/12/30 09:23:55;;;;;;;11.73;2.67;;;;;;;;;;5057081;28;20065;-80
2022/12/30 09:26:31;;;;;;;9.75;2.92;;;;;;;;;;5054751;28;20081;-79
2022/12/30 09:29:08;;;;;;;9.93;2.60;;;;;;;;;;5055603;28;20073;-79
2022/12/30 09:31:37;;;;;;;9.63;2.50;;;;;;;;;;5055454;28;20045;-79
2022/12/30 09:34:05;;;;;;;7.65;2.35;;;;;;;;;;5049740;28;20076;-79
2022/12/30 09:36:34;;;;;;;14.48;2.67;;;;;;;;;;5046127;28;20137;-80
2022/12/30 09:39:04;;;;;;;13.73;2.80;;;;;;;;;;5048916;28;20460;-80
2022/12/30 09:44:44;;;;;;;8.38;2.38;;;;;;;;;;5051817;28;20050;-79
2022/12/30 09:47:14;;;;;;;;;;;;;;;;;;5047156;28;20065;-79
2022/12/30 09:50:09;;;;;;;10.80;2.40;;;;;;;;;;5080115;28;44959;-80
2022/12/30 09:52:43;;;;;;;7.75;2.00;;;;;;;;;;5071651;28;20068;-81
2022/12/30 09:55:36;;;;;;;7.75;2.00;;;;;;;;;;5048155;28;20049;-79
2022/12/30 09:58:15;;;;;;;6.40;2.38;;;;;;;;;;5047530;28;20557;-79
2022/12/30 10:00:42;;;;;;;12.20;1.98;;;;;;;;;;5053232;28;20053;-80
2022/12/30 10:03:17;;;;;;;7.65;2.17;;;;;;;;;;5057486;28;20045;-79
2022/12/30 10:06:22;;;;;;;3.95;1.63;;;;;;;;;;5045665;28;20576;-79
2022/12/30 10:08:54;;;;;;;7.50;2.05;;;;;;;;;;5064601;28;20081;-79
2022/12/30 10:11:27;;;;;;;5.50;1.98;;;;;;;;;;5068507;28;20133;-81
2022/12/30 10:14:00;;;;;;;7.53;1.60;;;;;;;;;;5069214;28;20869;-79
2022/12/30 10:16:51;;;;;;;8.25;1.95;;;;;;;;;;5047234;28;20046;-80
2022/12/30 10:19:26;;;;;;;7.47;2.00;;;;;;;;;;5052550;28;20037;-80
2022/12/30 10:21:59;;;;;;;3.58;1.63;;;;;;;;;;5052775;28;20050;-79
2022/12/30 10:24:30;;;;;;;5.55;1.80;;;;;;;;;;5052435;28;20057;-79
2022/12/30 10:26:58;;;;;;;7.68;1.58;;;;;;;;;;5052923;28;20903;-79
2022/12/30 10:29:40;;;;;;;9.05;2.35;;;;;;;;;;5049343;28;20067;-79
2022/12/30 10:32:16;;;;;;;5.50;1.65;;;;;;;;;;5046236;28;20862;-80
2022/12/30 10:34:45;;;;;;;5.65;1.80;;;;;;;;;;5045922;28;20073;-79
2022/12/30 10:37:16;;;;;;;5.28;1.30;;;;;;;;;;5052616;28;20076;-80
2022/12/30 10:39:48;;;;;;;7.25;1.45;;;;;;;;;;5044347;28;20041;-79
2022/12/30 10:42:27;;;;;;;7.95;2.05;;;;;;;;;;5050052;28;20093;-80
2022/12/30 10:45:07;;;;;;;7.03;1.40;;;;;;;;;;5078023;28;20046;-80
2022/12/30 10:47:43;;;;;;;4.97;1.55;;;;;;;;;;5052375;28;20050;-80
2022/12/30 10:50:19;;;;;;;7.00;1.38;;;;;;;;;;5048766;28;20098;-80
2022/12/30 10:53:30;;;;;;;6.88;1.42;;;;;;;;;;4974226;28;20039;-79
2022/12/30 10:56:01;;;;;;;7.10;1.40;;;;;;;;;;4973013;28;20059;-79
2022/12/30 10:58:40;;;;;;;3.38;1.20;;;;;;;;;;4967447;28;20058;-80
2022/12/30 11:01:13;;;;;;;10.32;1.83;;;;;;;;;;4970494;28;20062;-79
2022/12/30 11:03:50;;;;;;;6.57;1.57;;;;;;;;;;4976084;28;20055;-79
2022/12/30 11:06:53;;;;;;;7.65;2.05;;;;;;;;;;4956211;28;20055;-80
2022/12/30 11:09:35;;;;;;;5.10;1.50;;;;;;;;;;4972112;28;20058;-79
2022/12/30 11:15:17;;;;;;;9.88;1.63;;;;;;;;;;5052510;28;20029;-79
2022/12/30 11:17:57;;;;;;;7.28;1.60;;;;;;;;;;5063433;28;20064;-80
2022/12/30 11:20:29;;;;;;;6.13;1.42;;;;;;;;;;5051084;28;20180;-80
2022/12/30 11:22:57;;;;;;;5.90;1.52;;;;;;;;;;5060389;28;20078;-80
2022/12/30 11:25:27;;;;;;;5.75;1.20;;;;;;;;;;5052180;28;20037;-80
2022/12/30 11:27:56;;;;;;;6.53;1.45;;;;;;;;;;5052217;28;20053;-80
2022/12/30 11:30:27;;;;;;;9.45;1.50;;;;;;;;;;5047960;28;20134;-79
2022/12/30 11:32:55;;;;;;;5.82;1.65;;;;;;;;;;5047644;28;20076;-79
2022/12/30 11:35:51;;;;;;;4.57;1.40;;;;;;;;;;5051269;28;20059;-80
2022/12/30 11:38:38;;;;;;;8.38;1.67;;;;;;;;;;5046871;28;20100;-80
2022/12/30 11:41:15;;;;;;;5.53;1.50;;;;;;;;;;5042564;28;20062;-80
2022/12/30 11:43:43;;;;;;;5.60;1.25;;;;;;;;;;5038047;28;20056;-80
2022/12/30 11:46:15;;;;;;;11.00;1.67;;;;;;;;;;5072962;28;20054;-79
2022/12/30 11:48:47;;;;;;;7.82;1.30;;;;;;;;;;5058503;28;20054;-79
2022/12/30 11:51:28;;;;;;;7.03;1.63;;;;;;;;;;5039047;28;20120;-81
2022/12/30 11:54:06;;;;;;;9.40;1.75;;;;;;;;;;5046833;28;20046;-80
2022/12/30 11:56:34;;;;;;;6.88;1.40;;;;;;;;;;5046181;28;20057;-79
2022/12/30 11:59:09;;;;;;;7.38;1.50;;;;;;;;;;5074597;28;20066;-80
2022/12/30 12:01:45;;;;;;;6.47;1.40;;;;;;;;;;5058274;28;20049;-80
2022/12/30 12:04:31;;;;;;;6.47;1.45;;;;;;;;;;5043398;28;20053;-80
2022/12/30 12:07:00;;;;;;;6.40;1.50;;;;;;;;;;5046205;28;20061;-79
2022/12/30 12:09:42;;;;;;;4.70;1.50;;;;;;;;;;5041957;28;20065;-79
2022/12/30 12:12:12;;;;;;;7.50;1.60;;;;;;;;;;5041727;28;20144;-80
2022/12/30 12:14:41;;;;;;;8.88;1.80;;;;;;;;;;5046572;28;20976;-80
2022/12/30 12:17:27;;;;;;;5.32;1.42;;;;;;;;;;5043275;28;20432;-80
2022/12/30 12:20:06;;;;;;;7.20;1.42;;;;;;;;;;5041708;28;20594;-80
2022/12/30 12:22:33;;;;;;;7.65;1.83;;;;;;;;;;5042359;28;20045;-79
2022/12/30 12:25:06;;;;;;;6.43;1.63;;;;;;;;;;5043253;28;20111;-80
2022/12/30 12:27:33;;;;;;;8.02;1.75;;;;;;;;;;5041941;28;20054;-80
2022/12/30 12:30:00;;;;;;;8.45;1.60;;;;;;;;;;5043524;28;20053;-80
2022/12/30 12:32:32;;;;;;;8.27;1.38;;;;;;;;;;5035988;28;20049;-80
2022/12/30 12:35:34;;;;;;;10.15;2.10;;;;;;;;;;5041904;28;20038;-80
2022/12/30 12:38:08;;;;;;;7.18;1.30;;;;;;;;;;5055942;28;20058;-79
2022/12/30 12:40:53;;;;;;;8.98;1.60;;;;;;;;;;5038992;28;20050;-79
2022/12/30 12:43:26;;;;;;;6.80;1.55;;;;;;;;;;5042855;28;20049;-79
2022/12/30 12:45:55;;;;;;;3.90;1.67;;;;;;;;;;5041774;28;20193;-79
2022/12/30 12:48:22;;;;;;;13.00;2.00;;;;;;;;;;5045451;28;20054;-79
2022/12/30 12:51:08;;;;;;;8.65;1.52;;;;;;;;;;5045003;28;20889;-79
2022/12/30 12:54:02;;;;;;;7.32;1.63;;;;;;;;;;5039108;28;20575;-79
2022/12/30 12:57:10;;;;;;;11.35;1.55;;;;;;;;;;5040677;28;20050;-80
2022/12/30 12:59:49;;;;;;;7.65;1.52;;;;;;;;;;5070419;28;20132;-79
2022/12/30 13:02:22;;;;;;;6.43;1.58;;;;;;;;;;5045602;28;20046;-81
2022/12/30 13:05:44;;;;;;;10.55;2.15;;;;;;;;;;5038118;28;20830;-80
2022/12/30 13:08:30;;;;;;;14.13;2.25;;;;;;;;;;5036061;28;20084;-80
2022/12/30 13:11:01;;;;;;;9.40;1.80;;;;;;;;;;5045540;28;20058;-79
2022/12/30 13:14:02;;;;;;;7.10;1.60;;;;;;;;;;5042336;28;20053;-80
2022/12/30 13:16:37;;;;;;;12.43;1.88;;;;;;;;;;5039928;28;20060;-80
2022/12/30 13:19:08;;;;;;;6.78;1.48;;;;;;;;;;5074242;28;20684;-80
2022/12/30 13:21:53;;;;;;;11.98;1.73;;;;;;;;;;5034573;28;20057;-80
2022/12/30 13:24:25;;;;;;;7.22;1.65;;;;;;;;;;5043150;28;20565;-79
2022/12/30 13:27:07;;;;;;;8.43;1.77;;;;;;;;;;5038572;28;20110;-81
2022/12/30 13:29:35;;;;;;;12.25;1.65;;;;;;;;;;5048549;28;20057;-80
2022/12/30 13:32:21;;;;;;;12.05;1.92;;;;;;;;;;5042918;28;20062;-80
2022/12/30 13:35:12;;;;;;;8.02;1.70;;;;;;;;;;5047268;28;20072;-79
2022/12/30 13:37:43;;;;;;;6.25;1.92;;;;;;;;;;5031646;28;20140;-80
2022/12/30 13:40:19;;;;;;;9.95;1.88;;;;;;;;;;5046247;28;20897;-80
2022/12/30 13:43:04;;;;;;;6.85;1.58;;;;;;;;;;5045148;28;20054;-80
2022/12/30 13:45:37;;;;;;;9.75;1.63;;;;;;;;;;5044704;28;20052;-81
2022/12/30 13:48:12;;;;;;;6.53;1.65;;;;;;;;;;5033995;28;20050;-80
2022/12/30 13:50:40;;;;;;;10.55;1.73;;;;;;;;;;5048702;28;20064;-80
2022/12/30 13:53:27;;;;;;;4.63;1.63;;;;;;;;;;5050922;28;20112;-80
2022/12/30 13:55:55;;;;;;;4.00;1.38;;;;;;;;;;5029387;28;20054;-79
2022/12/30 13:58:28;;;;;;;9.40;1.30;;;;;;;;;;5048518;28;20049;-80
2022/12/30 14:01:20;;;;;;;5.10;1.27;;;;;;;;;;5032736;28;20144;-80
2022/12/30 14:03:52;;;;;;;4.80;1.20;;;;;;;;;;5029391;28;20049;-80
2022/12/30 14:06:30;;;;;;;4.63;1.23;;;;;;;;;;5039870;28;20057;-79
2022/12/30 14:09:17;;;;;;;5.32;1.40;;;;;;;;;;5045456;28;20054;-79
2022/12/30 14:12:06;;;;;;;7.35;1.17;;;;;;;;;;5017142;28;20033;-79
2022/12/30 14:14:43;;;;;;;4.63;1.08;;;;;;;;;;5027900;28;20060;-79
2022/12/30 14:17:16;;;;;;;4.05;1.25;;;;;;;;;;5042150;28;20057;-80
2022/12/30 14:20:02;;;;;;;4.85;1.35;;;;;;;;;;5040878;28;20084;-79
2022/12/30 14:22:41;;;;;;;5.65;1.25;;;;;;;;;;5042509;28;20085;-79
2022/12/30 14:25:29;;;;;;;6.00;1.42;;;;;;;;;;5050594;28;20045;-79
2022/12/30 14:28:11;;;;;;;5.72;1.70;;;;;;;;;;5043643;28;20109;-80
2022/12/30 14:30:43;;;;;;;2.15;1.20;;;;;;;;;;5041088;28;20038;-79
2022/12/30 14:33:13;;;;;;;9.43;1.63;;;;;;;;;;5046572;28;20053;-80
2022/12/30 14:35:50;;;;;;;8.23;1.85;;;;;;;;;;5050878;28;20132;-80
2022/12/30 14:38:27;;;;;;;4.35;1.40;;;;;;;;;;5051684;28;20045;-80
2022/12/30 14:41:00;;;;;;;4.22;1.65;;;;;;;;;;5038097;28;20062;-79
2022/12/30 14:43:28;;;;;;;7.57;1.52;;;;;;;;;;5042173;28;20054;-79
2022/12/30 14:46:29;;;;;;;5.03;1.58;;;;;;;;;;5059256;28;20164;-80
2022/12/30 14:49:05;;;;;;;5.45;1.50;;;;;;;;;;5036590;28;20827;-80
2022/12/30 14:51:39;;;;;;;2.83;1.30;;;;;;;;;;5057203;28;20041;-80
2022/12/30 14:54:12;;;;;;;6.93;1.83;;;;;;;;;;5042438;28;20059;-79
2022/12/30 14:56:39;;;;;;;5.15;1.50;;;;;;;;;;5043805;28;20049;-80
2022/12/30 14:59:07;;;;;;;4.40;1.40;;;;;;;;;;5041971;28;20057;-79
2022/12/30 15:01:35;;;;;;;5.32;1.38;;;;;;;;;;5045050;28;20117;-80
2022/12/30 15:04:16;;;;;;;5.40;1.52;;;;;;;;;;5046644;28;20045;-79
2022/12/30 15:06:45;;;;;;;4.07;1.58;;;;;;;;;;5045214;28;20049;-81
2022/12/30 15:09:20;;;;;;;6.60;1.90;;;;;;;;;;5059698;28;20045;-81
2022/12/30 15:11:53;;;;;;;7.90;1.80;;;;;;;;;;5045697;28;20049;-81
2022/12/30 15:14:21;;;;;;;3.55;1.35;;;;;;;;;;5074363;28;20029;-81
2022/12/30 15:17:07;;;;;;;2.80;1.40;;;;;;;;;;5036293;28;20101;-81
2022/12/30 15:19:37;;;;;;;5.03;1.58;;;;;;;;;;5042159;28;20100;-81
2022/12/30 15:22:11;;;;;;;7.55;1.80;;;;;;;;;;5044025;28;20092;-80
2022/12/30 15:24:42;;;;;;;7.60;1.58;;;;;;;;;;5042358;28;20053;-81
2022/12/30 15:27:23;;;;;;;3.25;1.40;;;;;;;;;;5044443;28;20136;-79
2022/12/30 15:29:51;;;;;;;4.13;1.50;;;;;;;;;;5044361;28;20053;-80
2022/12/30 15:32:21;;;;;;;3.53;1.52;;;;;;;;;;5052141;28;20049;-81
2022/12/30 15:34:49;;;;;;;3.58;1.35;;;;;;;;;;5039184;28;20046;-80
2022/12/30 15:37:27;;;;;;;7.28;1.90;;;;;;;;;;5048979;28;20041;-80
2022/12/30 15:39:58;;;;;;;2.38;1.70;;;;;;;;;;5046147;28;20077;-80
2022/12/30 15:42:37;;;;;;;2.95;1.50;;;;;;;;;;5046127;28;20114;-81
2022/12/30 15:45:10;;;;;;;1.77;1.50;;;;;;;;;;5049340;28;20053;-80
2022/12/30 15:47:38;;;;;;;3.67;1.50;;;;;;;;;;5045529;28;20057;-80
2022/12/30 15:50:05;;;;;;;4.80;1.80;;;;;;;;;;5042162;28;20117;-81
2022/12/30 15:52:40;;;;;;;5.35;1.73;;;;;;;;;;5072736;28;20049;-80
2022/12/30 15:55:16;;;;;;;3.95;1.65;;;;;;;;;;5045040;28;20064;-81
2022/12/30 15:57:43;;;;;;;3.40;1.60;;;;;;;;;;5046386;28;20140;-81
2022/12/30 16:00:27;;;;;;;4.28;1.60;;;;;;;;;;5037606;28;20148;-80
2022/12/30 16:02:56;;;;;;;3.20;1.80;;;;;;;;;;5041489;28;20053;-82
2022/12/30 16:05:27;;;;;;;4.10;1.70;;;;;;;;;;5040962;28;20092;-81
2022/12/30 16:08:09;;;;;;;4.60;1.90;;;;;;;;;;5043211;28;20085;-80